createdAt,value
2022-12-15T00:02:15.219Z,99844.03
2022-12-15T00:05:00.396Z,99846.28
2022-12-15T00:07:46.461Z,99836.09
2022-12-15T00:10:31.284Z,99833.44
2022-12-15T00:13:16.159Z,99844.31
2022-12-15T00:16:01.654Z,99836.88
2022-12-15T00:18:47.049Z,99858.91
2022-12-15T00:21:32.448Z,99842.81
2022-12-15T00:24:19.069Z,99852.41
2022-12-15T00:27:03.859Z,99863.31
2022-12-15T00:29:48.703Z,99858.47
2022-12-15T00:32:33.992Z,99863.50
2022-12-15T00:35:18.784Z,99853.31
2022-12-15T00:38:03.680Z,99859.88
2022-12-15T00:40:32.693Z,99854.97
2022-12-15T00:43:00.350Z,99864.03
2022-12-15T00:45:48.053Z,99859.06
2022-12-15T00:48:14.761Z,99861.63
2022-12-15T00:50:54.461Z,99866.88
2022-12-15T00:53:40.480Z,99866.75
2022-12-15T00:56:27.027Z,99864.72
2022-12-15T00:59:11.845Z,99864.63
2022-12-15T01:01:57.198Z,99868.47
2022-12-15T01:04:42.330Z,99858.69
2022-12-15T01:07:27.816Z,99869.47
2022-12-15T01:10:12.687Z,99873.56
2022-12-15T01:12:58.829Z,99878.91
2022-12-15T01:15:43.694Z,99876.38
2022-12-15T01:18:28.923Z,99877.97
2022-12-15T01:20:57.519Z,99884.03
2022-12-15T01:23:25.248Z,99879.69
2022-12-15T01:25:53.243Z,99872.47
2022-12-15T01:28:23.045Z,99883.38
2022-12-15T01:30:50.644Z,99894.41
2022-12-15T01:33:18.381Z,99906.16
2022-12-15T01:35:45.839Z,99896.94
2022-12-15T01:38:13.468Z,99906.22
2022-12-15T01:40:46.039Z,99905.91
2022-12-15T01:43:14.269Z,99904.09
2022-12-15T01:45:54.201Z,99904.25
2022-12-15T01:48:24.171Z,99896.09
2022-12-15T01:50:59.001Z,99898.56
2022-12-15T01:53:27.239Z,99921.56
2022-12-15T01:55:55.225Z,99897.06
2022-12-15T01:58:22.675Z,99897.69
2022-12-15T02:00:50.233Z,99901.16
2022-12-15T02:03:19.950Z,99892.72
2022-12-15T02:05:48.177Z,99903.56
2022-12-15T02:08:15.909Z,99904.28
2022-12-15T02:10:57.765Z,99899.22
2022-12-15T02:13:27.113Z,99901.97
2022-12-15T02:15:55.913Z,99907.94
2022-12-15T02:18:25.699Z,99917.97
2022-12-15T02:20:57.726Z,99917.91
2022-12-15T02:24:19.170Z,99918.19
2022-12-15T02:27:04.334Z,99914.75
2022-12-15T02:29:44.396Z,99917.09
2022-12-15T02:32:14.446Z,99903.88
2022-12-15T02:34:45.707Z,99907.75
2022-12-15T02:37:16.188Z,99899.59
2022-12-15T02:39:44.233Z,99907.97
2022-12-15T02:42:12.276Z,99913.75
2022-12-15T02:44:40.605Z,99916.53
2022-12-15T02:47:13.716Z,99912.28
2022-12-15T02:49:50.564Z,99911.06
2022-12-15T02:52:27.909Z,99914.66
2022-12-15T02:54:59.430Z,99904.56
2022-12-15T02:57:28.181Z,99901.44
2022-12-15T02:59:59.371Z,99915.06
2022-12-15T03:02:31.111Z,99913.50
2022-12-15T03:04:58.678Z,99923.53
2022-12-15T03:07:27.714Z,99929.22
2022-12-15T03:09:56.052Z,99924.38
2022-12-15T03:12:23.773Z,99928.34
2022-12-15T03:14:51.411Z,99926.44
2022-12-15T03:17:19.088Z,99921.56
2022-12-15T03:19:49.716Z,99918.22
2022-12-15T03:22:17.662Z,99927.38
2022-12-15T03:24:45.180Z,99929.25
2022-12-15T03:27:12.620Z,99939.25
2022-12-15T03:29:40.180Z,99935.16
2022-12-15T03:32:08.569Z,99942.06
2022-12-15T03:34:36.293Z,99946.34
2022-12-15T03:37:05.407Z,99941.34
2022-12-15T03:39:33.233Z,99943.31
2022-12-15T03:42:00.918Z,99943.59
2022-12-15T03:44:28.610Z,99944.75
2022-12-15T03:47:02.786Z,99949.78
2022-12-15T03:49:30.875Z,99963.56
2022-12-15T03:51:58.402Z,99959.88
2022-12-15T03:54:27.304Z,99954.97
2022-12-15T03:56:54.993Z,99942.31
2022-12-15T03:59:22.709Z,99949.97
2022-12-15T04:01:50.495Z,99953.56
2022-12-15T04:04:18.252Z,99944.97
2022-12-15T04:06:46.151Z,99951.50
2022-12-15T04:09:13.810Z,99950.25
2022-12-15T04:11:42.786Z,99952.09
2022-12-15T04:14:10.309Z,99952.84
2022-12-15T04:16:37.805Z,99951.25
2022-12-15T04:19:23.023Z,99944.06
2022-12-15T04:21:50.688Z,99944.44
2022-12-15T04:24:36.296Z,99955.25
2022-12-15T04:27:22.380Z,99963.88
2022-12-15T04:30:07.365Z,99967.28
2022-12-15T04:32:52.625Z,99967.97
2022-12-15T04:35:38.069Z,99966.88
2022-12-15T04:38:23.437Z,99962.06
2022-12-15T04:41:08.810Z,99966.16
2022-12-15T04:43:55.456Z,99965.59
2022-12-15T04:46:40.770Z,99968.00
2022-12-15T04:49:25.963Z,99974.84
2022-12-15T04:52:10.899Z,99978.44
2022-12-15T04:54:55.754Z,99987.50
2022-12-15T04:57:41.263Z,99972.22
2022-12-15T05:00:29.341Z,99974.66
2022-12-15T05:03:18.344Z,99975.63
2022-12-15T05:06:04.138Z,99980.44
2022-12-15T05:08:50.037Z,99968.78
2022-12-15T05:11:35.627Z,99971.50
2022-12-15T05:14:21.069Z,99984.72
2022-12-15T05:17:07.764Z,99977.16
2022-12-15T05:19:52.643Z,99971.47
2022-12-15T05:22:37.566Z,99982.53
2022-12-15T05:25:22.963Z,99983.59
2022-12-15T05:28:08.430Z,99976.78
2022-12-15T05:30:53.728Z,99975.25
2022-12-15T05:33:22.859Z,99980.16
2022-12-15T05:35:51.057Z,99985.69
2022-12-15T05:38:19.364Z,99976.69
2022-12-15T05:40:47.085Z,99990.75
2022-12-15T05:43:14.716Z,99976.78
2022-12-15T05:45:42.438Z,99985.38
2022-12-15T05:48:10.129Z,99986.19
2022-12-15T05:50:39.170Z,99989.53
2022-12-15T05:53:06.929Z,99988.72
2022-12-15T05:55:34.593Z,99993.00
2022-12-15T05:58:02.408Z,99991.16
2022-12-15T06:00:30.107Z,99994.63
2022-12-15T06:02:59.110Z,99990.47
2022-12-15T06:05:26.876Z,100001.38
2022-12-15T06:07:56.145Z,100006.78
2022-12-15T06:10:23.641Z,100009.25
2022-12-15T06:12:51.324Z,100014.19
2022-12-15T06:15:18.791Z,100004.16
2022-12-15T06:17:46.228Z,100012.81
2022-12-15T06:20:17.760Z,100021.13
2022-12-15T06:22:49.892Z,100013.81
2022-12-15T06:25:19.361Z,100019.78
2022-12-15T06:27:47.051Z,100024.00
2022-12-15T06:30:16.203Z,100028.94
2022-12-15T06:32:43.934Z,100026.31
2022-12-15T06:35:11.654Z,100035.78
2022-12-15T06:37:39.544Z,100031.34
2022-12-15T06:40:07.694Z,100034.03
2022-12-15T06:42:36.512Z,100033.09
2022-12-15T06:45:04.389Z,100028.00
2022-12-15T06:47:32.653Z,100039.19
2022-12-15T06:50:00.303Z,100031.03
2022-12-15T06:52:27.929Z,100052.16
2022-12-15T06:54:55.906Z,100053.06
2022-12-15T06:57:23.581Z,100051.22
2022-12-15T06:59:52.662Z,100054.81
2022-12-15T07:02:26.892Z,100055.66
2022-12-15T07:04:56.443Z,100067.53
2022-12-15T07:07:24.234Z,100066.78
2022-12-15T07:09:51.919Z,100059.94
2022-12-15T07:12:19.674Z,100067.66
2022-12-15T07:14:53.019Z,100068.59
2022-12-15T07:17:22.517Z,100068.56
2022-12-15T07:19:50.226Z,100080.31
2022-12-15T07:22:17.723Z,100079.50
2022-12-15T07:24:45.961Z,100081.22
2022-12-15T07:27:13.458Z,100070.28
2022-12-15T07:29:41.276Z,100078.69
2022-12-15T07:32:08.950Z,100091.47
2022-12-15T07:34:38.004Z,100096.47
2022-12-15T07:37:05.781Z,100080.72
2022-12-15T07:39:33.405Z,100092.56
2022-12-15T07:42:01.257Z,100101.03
2022-12-15T07:44:29.619Z,100090.84
2022-12-15T07:46:57.266Z,100088.94
2022-12-15T07:49:25.109Z,100094.06
2022-12-15T07:51:56.372Z,100094.19
2022-12-15T07:54:24.016Z,100108.72
2022-12-15T07:56:51.661Z,100105.47
2022-12-15T07:59:19.634Z,100101.91
2022-12-15T08:01:47.767Z,100100.22
2022-12-15T08:04:15.790Z,100101.97
2022-12-15T08:06:43.447Z,100117.13
2022-12-15T08:09:13.045Z,100116.16
2022-12-15T08:11:40.775Z,100123.78
2022-12-15T08:14:15.042Z,100119.66
2022-12-15T08:16:45.316Z,100121.97
2022-12-15T08:19:13.372Z,100118.06
2022-12-15T08:21:41.233Z,100117.31
2022-12-15T08:24:09.156Z,100128.84
2022-12-15T08:26:39.089Z,100133.13
2022-12-15T08:31:56.041Z,100136.56
2022-12-15T08:34:23.518Z,100135.44
2022-12-15T08:36:51.794Z,100133.78
2022-12-15T08:39:20.419Z,100134.63
2022-12-15T08:41:49.511Z,100138.28
2022-12-15T08:44:17.364Z,100145.03
2022-12-15T08:46:45.100Z,100149.28
2022-12-15T08:49:16.636Z,100144.81
2022-12-15T08:51:49.971Z,100152.50
2022-12-15T08:54:19.118Z,100138.81
2022-12-15T08:56:46.798Z,100152.53
2022-12-15T08:59:15.903Z,100160.84
2022-12-15T09:01:43.814Z,100154.63
2022-12-15T09:04:11.804Z,100159.75
2022-12-15T09:06:39.520Z,100157.22
2022-12-15T09:09:09.599Z,100155.00
2022-12-15T09:11:37.330Z,100150.13
2022-12-15T09:14:05.243Z,100158.91
2022-12-15T09:16:34.439Z,100152.94
2022-12-15T09:19:02.148Z,100146.31
2022-12-15T09:21:31.997Z,100147.84
2022-12-15T09:24:01.948Z,100150.59
2022-12-15T09:26:32.017Z,100149.78
2022-12-15T09:29:00.372Z,100160.19
2022-12-15T09:31:28.852Z,100156.28
2022-12-15T09:33:58.934Z,100156.22
2022-12-15T09:36:27.679Z,100166.50
2022-12-15T09:38:55.924Z,100156.19
2022-12-15T09:41:25.464Z,100163.19
2022-12-15T09:43:56.723Z,100169.53
2022-12-15T09:46:29.217Z,100171.41
2022-12-15T09:48:59.500Z,100169.81
2022-12-15T09:51:33.536Z,100160.69
2022-12-15T09:54:01.837Z,100152.78
2022-12-15T09:56:38.774Z,100155.16
2022-12-15T09:59:15.660Z,100165.28
2022-12-15T10:01:47.099Z,100173.38
2022-12-15T10:04:22.549Z,100165.09
2022-12-15T10:06:51.888Z,100156.31
2022-12-15T10:09:21.573Z,100155.50
2022-12-15T10:11:52.901Z,100152.94
2022-12-15T10:14:28.427Z,100156.63
2022-12-15T10:17:03.116Z,100174.00
2022-12-15T10:19:38.377Z,100174.06
2022-12-15T10:22:06.286Z,100160.63
2022-12-15T10:27:24.873Z,100170.88
2022-12-15T10:29:53.353Z,100170.56
2022-12-15T10:32:21.681Z,100184.03
2022-12-15T10:34:50.728Z,100172.63
2022-12-15T10:37:20.291Z,100171.28
2022-12-15T10:39:50.077Z,100172.84
2022-12-15T10:42:21.457Z,100178.88
2022-12-15T10:44:51.224Z,100170.94
2022-12-15T10:47:21.868Z,100178.44
2022-12-15T10:49:51.253Z,100181.16
2022-12-15T10:52:24.262Z,100181.50
2022-12-15T10:54:54.309Z,100174.13
2022-12-15T10:57:27.494Z,100173.22
2022-12-15T10:59:55.676Z,100175.41
2022-12-15T11:02:36.655Z,100174.38
2022-12-15T11:05:16.589Z,100175.03
2022-12-15T11:07:47.649Z,100172.06
2022-12-15T11:10:19.089Z,100169.97
2022-12-15T11:12:58.746Z,100170.56
2022-12-15T11:15:45.480Z,100171.66
2022-12-15T11:18:28.116Z,100167.19
2022-12-15T11:21:01.855Z,100175.91
2022-12-15T11:23:38.709Z,100163.06
2022-12-15T11:26:16.065Z,100171.34
2022-12-15T11:28:46.874Z,100181.72
2022-12-15T11:31:21.398Z,100164.84
2022-12-15T11:33:49.289Z,100169.81
2022-12-15T11:36:25.478Z,100174.75
2022-12-15T11:38:56.408Z,100172.38
2022-12-15T11:41:37.519Z,100175.97
2022-12-15T11:44:16.939Z,100172.91
2022-12-15T11:46:48.534Z,100170.47
2022-12-15T11:49:37.609Z,100170.00
2022-12-15T11:52:15.349Z,100179.13
2022-12-15T11:54:48.327Z,100178.78
2022-12-15T11:57:40.493Z,100180.28
2022-12-15T12:00:10.033Z,100163.75
2022-12-15T12:02:48.867Z,100174.31
2022-12-15T12:05:33.868Z,100173.56
2022-12-15T12:08:11.289Z,100172.88
2022-12-15T12:10:43.905Z,100182.53
2022-12-15T12:13:19.312Z,100184.28
2022-12-15T12:15:51.800Z,100173.09
2022-12-15T12:18:22.823Z,100170.81
2022-12-15T12:20:53.030Z,100165.53
2022-12-15T12:23:25.700Z,100151.75
2022-12-15T12:26:03.183Z,100168.97
2022-12-15T12:28:38.533Z,100163.34
2022-12-15T12:31:07.180Z,100164.28
2022-12-15T12:33:40.154Z,100159.75
2022-12-15T12:36:12.073Z,100161.47
2022-12-15T12:38:46.255Z,100150.69
2022-12-15T12:41:24.138Z,100140.38
2022-12-15T12:43:55.519Z,100147.16
2022-12-15T12:46:26.422Z,100165.91
2022-12-15T12:48:56.712Z,100169.00
2022-12-15T12:51:27.215Z,100161.00
2022-12-15T12:53:56.472Z,100139.03
2022-12-15T12:56:37.441Z,100154.13
2022-12-15T12:59:08.833Z,100144.88
2022-12-15T13:01:38.056Z,100153.13
2022-12-15T13:04:08.545Z,100155.28
2022-12-15T13:07:02.485Z,100149.03
2022-12-15T13:09:42.659Z,100142.28
2022-12-15T13:12:51.109Z,100131.13
2022-12-15T13:15:36.423Z,100152.22
2022-12-15T13:18:08.781Z,100149.59
2022-12-15T13:20:38.061Z,100145.34
2022-12-15T13:23:36.715Z,100138.44
2022-12-15T13:26:15.943Z,100130.75
2022-12-15T13:28:46.232Z,100136.69
2022-12-15T13:31:43.018Z,100115.28
2022-12-15T13:34:17.097Z,100117.00
2022-12-15T13:36:59.132Z,100118.50
2022-12-15T13:39:55.297Z,100115.78
2022-12-15T13:42:48.280Z,100121.34
2022-12-15T13:45:48.735Z,100110.47
2022-12-15T13:48:25.437Z,100102.78
2022-12-15T13:50:59.078Z,100099.75
2022-12-15T13:53:27.996Z,100105.09
2022-12-15T13:56:05.779Z,100118.94
2022-12-15T13:58:40.865Z,100112.06
2022-12-15T14:01:21.290Z,100103.78
2022-12-15T14:04:06.711Z,100099.09
2022-12-15T14:06:40.048Z,100102.69
2022-12-15T14:09:08.331Z,100102.25
2022-12-15T14:11:52.514Z,100104.25
2022-12-15T14:14:25.412Z,100102.03
2022-12-15T14:16:55.662Z,100108.19
2022-12-15T14:19:23.560Z,100103.38
2022-12-15T14:21:53.055Z,100114.34
2022-12-15T14:24:41.443Z,100116.69
2022-12-15T14:27:09.139Z,100112.84
2022-12-15T14:29:38.169Z,100100.38
2022-12-15T14:32:06.584Z,100110.94
2022-12-15T14:34:36.837Z,100103.03
2022-12-15T14:37:07.692Z,100097.81
2022-12-15T14:39:37.464Z,100108.41
2022-12-15T14:42:06.152Z,100109.44
2022-12-15T14:44:39.125Z,100094.22
2022-12-15T14:47:18.058Z,100089.13
2022-12-15T14:49:46.641Z,100094.09
2022-12-15T14:52:24.724Z,100090.03
2022-12-15T14:54:57.606Z,100090.28
2022-12-15T14:57:27.175Z,100081.13
2022-12-15T14:59:54.944Z,100083.03
2022-12-15T15:02:26.869Z,100082.75
2022-12-15T15:05:02.883Z,100083.22
2022-12-15T15:07:31.785Z,100084.28
2022-12-15T15:10:00.204Z,100079.19
2022-12-15T15:12:42.072Z,100075.22
2022-12-15T15:15:16.444Z,100071.16
2022-12-15T15:17:49.789Z,100069.94
2022-12-15T15:20:23.246Z,100072.25
2022-12-15T15:23:05.779Z,100067.09
2022-12-15T15:25:39.828Z,100079.31
2022-12-15T15:28:16.430Z,100071.84
2022-12-15T15:30:48.183Z,100083.81
2022-12-15T15:33:18.157Z,100081.34
2022-12-15T15:35:48.498Z,100070.09
2022-12-15T15:38:21.445Z,100074.28
2022-12-15T15:40:50.821Z,100067.63
2022-12-15T15:43:19.179Z,100079.91
2022-12-15T15:45:47.558Z,100072.44
2022-12-15T15:48:20.470Z,100074.75
2022-12-15T15:50:48.267Z,100073.53
2022-12-15T15:53:18.368Z,100070.09
2022-12-15T15:55:46.167Z,100085.47
2022-12-15T15:58:14.072Z,100077.75
2022-12-15T16:00:42.108Z,100079.34
2022-12-15T16:03:10.126Z,100075.13
2022-12-15T16:05:39.371Z,100074.69
2022-12-15T16:08:07.449Z,100072.50
2022-12-15T16:10:35.382Z,100076.50
2022-12-15T16:13:03.225Z,100064.97
2022-12-15T16:15:32.663Z,100079.47
2022-12-15T16:18:00.471Z,100064.97
2022-12-15T16:20:29.942Z,100078.25
2022-12-15T16:23:01.964Z,100067.00
2022-12-15T16:25:39.763Z,100079.53
2022-12-15T16:28:14.167Z,100083.97
2022-12-15T16:30:43.085Z,100074.72
2022-12-15T16:33:11.462Z,100073.56
2022-12-15T16:35:39.823Z,100074.09
2022-12-15T16:38:15.143Z,100085.09
2022-12-15T16:40:42.917Z,100086.59
2022-12-15T16:43:15.068Z,100087.63
2022-12-15T16:45:44.574Z,100085.03
2022-12-15T16:48:12.706Z,100091.53
2022-12-15T16:50:42.319Z,100083.31
2022-12-15T16:53:16.324Z,100092.22
2022-12-15T16:55:44.480Z,100083.09
2022-12-15T16:58:15.968Z,100089.72
2022-12-15T17:00:44.643Z,100092.81
2022-12-15T17:03:14.433Z,100086.66
2022-12-15T17:05:43.765Z,100080.06
2022-12-15T17:08:18.294Z,100084.44
2022-12-15T17:10:46.572Z,100087.19
2022-12-15T17:13:21.628Z,100090.13
2022-12-15T17:15:49.391Z,100090.81
2022-12-15T17:18:17.167Z,100080.59
2022-12-15T17:20:44.864Z,100089.78
2022-12-15T17:23:16.089Z,100085.22
2022-12-15T17:26:19.649Z,100094.16
2022-12-15T17:28:36.608Z,100093.16
2022-12-15T17:31:04.841Z,100090.28
2022-12-15T17:33:35.607Z,100091.09
2022-12-15T17:36:05.787Z,100092.16
2022-12-15T17:38:34.944Z,100084.22
2022-12-15T17:41:02.717Z,100092.81
2022-12-15T17:43:35.582Z,100080.66
2022-12-15T17:46:03.757Z,100085.94
2022-12-15T17:48:31.533Z,100101.25
2022-12-15T17:50:59.468Z,100092.88
2022-12-15T17:53:27.290Z,100090.38
2022-12-15T17:55:56.327Z,100083.47
2022-12-15T17:58:25.488Z,100079.59
2022-12-15T18:00:54.252Z,100086.13
2022-12-15T18:03:22.673Z,100091.81
2022-12-15T18:05:51.810Z,100095.94
2022-12-15T18:08:20.979Z,100108.63
2022-12-15T18:10:50.949Z,100110.19
2022-12-15T18:13:21.223Z,100121.28
2022-12-15T18:15:49.435Z,100115.81
2022-12-15T18:18:17.962Z,100096.03
2022-12-15T18:20:46.116Z,100112.84
2022-12-15T18:23:14.976Z,100105.69
2022-12-15T18:25:44.014Z,100122.19
2022-12-15T18:28:21.941Z,100115.31
2022-12-15T18:30:50.377Z,100119.28
2022-12-15T18:33:18.122Z,100135.63
2022-12-15T18:35:47.786Z,100128.63
2022-12-15T18:38:17.302Z,100133.53
2022-12-15T18:40:46.521Z,100136.72
2022-12-15T18:43:16.448Z,100139.19
2022-12-15T18:45:45.760Z,100140.97
2022-12-15T18:48:17.376Z,100143.50
2022-12-15T18:50:45.575Z,100153.16
2022-12-15T18:53:17.571Z,100149.19
2022-12-15T18:55:45.253Z,100142.16
2022-12-15T18:58:21.060Z,100157.72
2022-12-15T19:00:50.421Z,100152.44
2022-12-15T19:03:18.621Z,100156.38
2022-12-15T19:05:46.520Z,100160.41
2022-12-15T19:08:18.037Z,100167.34
2022-12-15T19:10:51.301Z,100172.06
2022-12-15T19:13:21.018Z,100177.88
2022-12-15T19:15:50.015Z,100181.97
2022-12-15T19:18:36.448Z,100180.22
2022-12-15T19:21:45.399Z,100192.72
2022-12-15T19:24:16.264Z,100188.22
2022-12-15T19:26:44.375Z,100193.06
2022-12-15T19:29:17.819Z,100199.25
2022-12-15T19:31:47.368Z,100203.94
2022-12-15T19:34:15.405Z,100201.13
2022-12-15T19:36:43.144Z,100217.06
2022-12-15T19:39:20.460Z,100212.53
2022-12-15T19:41:48.240Z,100208.84
2022-12-15T19:44:16.612Z,100209.72
2022-12-15T19:46:46.515Z,100207.66
2022-12-15T19:49:14.956Z,100209.13
2022-12-15T19:51:43.432Z,100205.66
2022-12-15T19:54:13.489Z,100210.09
2022-12-15T19:56:41.285Z,100209.19
2022-12-15T19:59:12.036Z,100206.09
2022-12-15T20:01:39.844Z,100200.94
2022-12-15T20:04:09.399Z,100210.88
2022-12-15T20:06:38.417Z,100211.53
2022-12-15T20:09:10.138Z,100208.34
2022-12-15T20:11:38.807Z,100217.97
2022-12-15T20:14:11.412Z,100213.81
2022-12-15T20:16:39.177Z,100219.06
2022-12-15T20:19:06.941Z,100213.22
2022-12-15T20:21:39.199Z,100230.09
2022-12-15T20:24:08.851Z,100227.75
2022-12-15T20:26:38.745Z,100223.50
2022-12-15T20:29:06.832Z,100212.47
2022-12-15T20:31:34.873Z,100212.09
2022-12-15T20:34:02.564Z,100208.25
2022-12-15T20:36:31.487Z,100221.03
2022-12-15T20:39:01.185Z,100211.00
2022-12-15T20:41:30.407Z,100204.13
2022-12-15T20:43:58.926Z,100207.44
2022-12-15T20:46:28.352Z,100215.50
2022-12-15T20:48:56.685Z,100218.84
2022-12-15T20:51:26.269Z,100210.75
2022-12-15T20:53:55.797Z,100225.91
2022-12-15T20:56:25.317Z,100226.84
2022-12-15T20:58:53.999Z,100225.44
2022-12-15T21:01:24.059Z,100220.41
2022-12-15T21:03:52.964Z,100216.16
2022-12-15T21:06:21.141Z,100216.91
2022-12-15T21:08:49.433Z,100219.88
2022-12-15T21:11:19.440Z,100213.50
2022-12-15T21:13:49.845Z,100204.91
2022-12-15T21:16:19.686Z,100208.31
2022-12-15T21:21:37.530Z,100215.25
2022-12-15T21:24:14.557Z,100209.25
2022-12-15T21:26:42.549Z,100212.25
2022-12-15T21:29:14.159Z,100224.41
2022-12-15T21:31:42.380Z,100216.34
2022-12-15T21:34:10.215Z,100229.88
2022-12-15T21:36:38.699Z,100214.56
2022-12-15T21:39:07.664Z,100236.06
2022-12-15T21:41:36.026Z,100223.47
2022-12-15T21:44:03.683Z,100228.16
2022-12-15T21:46:32.813Z,100227.22
2022-12-15T21:49:23.572Z,100235.84
2022-12-15T21:51:53.350Z,100228.41
2022-12-15T21:54:30.422Z,100223.84
2022-12-15T21:56:58.679Z,100220.88
2022-12-15T21:59:28.243Z,100218.25
2022-12-15T22:01:57.552Z,100232.09
2022-12-15T22:04:27.982Z,100229.59
2022-12-15T22:06:55.681Z,100237.63
2022-12-15T22:09:23.440Z,100244.94
2022-12-15T22:11:53.646Z,100237.53
2022-12-15T22:14:25.594Z,100238.69
2022-12-15T22:16:53.804Z,100243.28
2022-12-15T22:19:24.267Z,100235.97
2022-12-15T22:21:52.297Z,100239.53
2022-12-15T22:24:20.821Z,100240.13
2022-12-15T22:26:48.735Z,100237.34
2022-12-15T22:29:18.696Z,100238.19
2022-12-15T22:31:46.418Z,100238.72
2022-12-15T22:34:15.794Z,100239.13
2022-12-15T22:36:45.253Z,100228.75
2022-12-15T22:39:14.786Z,100237.94
2022-12-15T22:41:43.791Z,100249.56
2022-12-15T22:44:16.948Z,100246.72
2022-12-15T22:46:44.824Z,100260.63
2022-12-15T22:49:15.433Z,100260.34
2022-12-15T22:51:44.730Z,100254.31
2022-12-15T22:54:18.904Z,100227.34
2022-12-15T22:56:47.394Z,100244.91
2022-12-15T22:59:20.041Z,100240.16
2022-12-15T23:01:47.786Z,100232.16
2022-12-15T23:04:15.629Z,100247.31
2022-12-15T23:06:45.376Z,100248.06
2022-12-15T23:09:13.160Z,100255.22
2022-12-15T23:11:41.400Z,100252.84
2022-12-15T23:14:11.740Z,100246.16
2022-12-15T23:16:39.102Z,100248.84
2022-12-15T23:19:08.635Z,100249.81
2022-12-15T23:21:36.764Z,100237.50
2022-12-15T23:24:06.092Z,100253.59
2022-12-15T23:26:33.889Z,100258.22
2022-12-15T23:29:02.117Z,100259.63
2022-12-15T23:31:30.158Z,100254.50
2022-12-15T23:33:57.924Z,100251.66
2022-12-15T23:36:25.593Z,100264.69
2022-12-15T23:38:55.104Z,100253.31
2022-12-15T23:41:24.229Z,100252.28
2022-12-15T23:43:51.925Z,100250.63
2022-12-15T23:46:19.725Z,100260.81
2022-12-15T23:48:47.480Z,100263.41
2022-12-15T23:51:17.008Z,100277.16
2022-12-15T23:53:45.808Z,100276.38
2022-12-15T23:56:15.045Z,100277.91
2022-12-15T23:58:45.048Z,100264.53
